createdAt,value
2022-07-30T00:02:03.051Z,97886.00
2022-07-30T00:04:36.155Z,97895.25
2022-07-30T00:07:09.360Z,97897.84
2022-07-30T00:09:43.878Z,97892.50
2022-07-30T00:12:16.968Z,97900.13
2022-07-30T00:14:50.121Z,97896.69
2022-07-30T00:17:23.259Z,97892.38
2022-07-30T00:19:56.569Z,97894.97
2022-07-30T00:22:29.672Z,97892.13
2022-07-30T00:25:04.692Z,97895.44
2022-07-30T00:27:38.038Z,97895.44
2022-07-30T00:30:12.894Z,97901.22
2022-07-30T00:32:46.008Z,97908.06
2022-07-30T00:35:19.395Z,97918.38
2022-07-30T00:37:52.534Z,97920.97
2022-07-30T00:40:27.264Z,97912.25
2022-07-30T00:43:00.388Z,97913.91
2022-07-30T00:45:34.487Z,97921.59
2022-07-30T00:48:07.758Z,97925.03
2022-07-30T00:50:41.582Z,97919.88
2022-07-30T00:53:18.450Z,97925.06
2022-07-30T00:55:52.902Z,97929.34
2022-07-30T00:58:26.275Z,97928.34
2022-07-30T01:00:59.489Z,97924.97
2022-07-30T01:03:32.646Z,97937.03
2022-07-30T01:06:06.054Z,97926.75
2022-07-30T01:08:47.205Z,97927.53
2022-07-30T01:11:21.696Z,97938.81
2022-07-30T01:13:54.830Z,97941.31
2022-07-30T01:16:28.107Z,97943.03
2022-07-30T01:19:21.573Z,97934.44
2022-07-30T01:22:04.228Z,97938.84
2022-07-30T01:24:42.143Z,97936.38
2022-07-30T01:27:19.999Z,97940.81
2022-07-30T01:29:55.019Z,97937.28
2022-07-30T01:32:29.362Z,97932.09
2022-07-30T01:35:04.109Z,97940.47
2022-07-30T01:37:40.569Z,97943.84
2022-07-30T01:40:15.709Z,97941.09
2022-07-30T01:42:54.852Z,97941.94
2022-07-30T01:45:31.410Z,97947.69
2022-07-30T01:48:12.115Z,97951.97
2022-07-30T01:50:48.043Z,97944.84
2022-07-30T01:53:32.719Z,97947.44
2022-07-30T01:56:10.540Z,97950.84
2022-07-30T01:58:49.901Z,97951.56
2022-07-30T02:01:23.077Z,97950.75
2022-07-30T02:03:56.325Z,97955.09
2022-07-30T02:06:36.002Z,97957.69
2022-07-30T02:09:11.508Z,97966.19
2022-07-30T02:12:05.820Z,97962.75
2022-07-30T02:14:50.855Z,97968.75
2022-07-30T02:17:30.447Z,97978.06
2022-07-30T02:20:15.005Z,97973.84
2022-07-30T02:22:50.037Z,97965.91
2022-07-30T02:25:23.909Z,97962.31
2022-07-30T02:27:59.778Z,97959.63
2022-07-30T02:30:37.755Z,97967.34
2022-07-30T02:33:12.828Z,97963.00
2022-07-30T02:35:46.588Z,97961.28
2022-07-30T02:38:21.785Z,97962.13
2022-07-30T02:40:57.145Z,97962.19
2022-07-30T02:43:35.481Z,97969.75
2022-07-30T02:46:13.569Z,97969.75
2022-07-30T02:48:48.098Z,97966.16
2022-07-30T02:51:23.119Z,97968.72
2022-07-30T02:53:57.899Z,97970.47
2022-07-30T02:56:32.399Z,97973.22
2022-07-30T02:59:07.621Z,97969.69
2022-07-30T03:01:44.040Z,97979.16
2022-07-30T03:04:20.208Z,97973.03
2022-07-30T03:06:54.932Z,97973.78
2022-07-30T03:09:51.116Z,97972.06
2022-07-30T03:12:23.808Z,97972.06
2022-07-30T03:14:57.712Z,97978.63
2022-07-30T03:17:38.853Z,97980.22
2022-07-30T03:20:17.043Z,97981.84
2022-07-30T03:22:54.674Z,97987.75
2022-07-30T03:25:30.013Z,97990.22
2022-07-30T03:28:04.936Z,97996.16
2022-07-30T03:30:38.520Z,97996.00
2022-07-30T03:33:13.582Z,98001.88
2022-07-30T03:35:49.289Z,98003.53
2022-07-30T03:38:23.918Z,98000.13
2022-07-30T03:40:57.801Z,98002.50
2022-07-30T03:43:33.127Z,98009.31
2022-07-30T03:46:08.774Z,98004.88
2022-07-30T03:48:43.990Z,98009.16
2022-07-30T03:51:18.346Z,98013.56
2022-07-30T03:53:52.628Z,98021.97
2022-07-30T03:56:25.953Z,98015.81
2022-07-30T03:58:59.124Z,98017.44
2022-07-30T04:01:32.683Z,98032.66
2022-07-30T04:04:08.365Z,98035.25
2022-07-30T04:06:42.932Z,98038.78
2022-07-30T04:09:16.180Z,98039.53
2022-07-30T04:11:49.265Z,98040.31
2022-07-30T04:14:22.401Z,98037.56
2022-07-30T04:17:01.656Z,98041.09
2022-07-30T04:19:40.147Z,98046.25
2022-07-30T04:22:17.158Z,98054.16
2022-07-30T04:24:52.157Z,98056.91
2022-07-30T04:27:25.959Z,98065.47
2022-07-30T04:29:59.862Z,98065.34
2022-07-30T04:32:34.113Z,98054.16
2022-07-30T04:35:09.585Z,98060.25
2022-07-30T04:37:42.729Z,98065.47
2022-07-30T04:40:15.837Z,98067.34
2022-07-30T04:42:49.386Z,98066.47
2022-07-30T04:45:22.552Z,98081.19
2022-07-30T04:47:55.661Z,98077.72
2022-07-30T04:50:31.037Z,98082.75
2022-07-30T04:53:04.636Z,98085.34
2022-07-30T04:55:40.627Z,98081.97
2022-07-30T04:58:16.625Z,98087.41
2022-07-30T05:00:53.086Z,98083.31
2022-07-30T05:03:27.571Z,98088.56
2022-07-30T05:06:02.584Z,98089.81
2022-07-30T05:08:35.743Z,98095.97
2022-07-30T05:11:13.433Z,98087.84
2022-07-30T05:13:48.812Z,98083.94
2022-07-30T05:16:21.939Z,98081.06
2022-07-30T05:18:55.307Z,98086.63
2022-07-30T05:21:29.885Z,98079.19
2022-07-30T05:24:03.519Z,98084.94
2022-07-30T05:26:36.712Z,98096.78
2022-07-30T05:29:09.855Z,98090.19
2022-07-30T05:31:52.830Z,98082.50
2022-07-30T05:34:26.322Z,98090.91
2022-07-30T05:37:01.109Z,98091.25
2022-07-30T05:39:35.114Z,98089.78
2022-07-30T05:42:13.978Z,98093.84
2022-07-30T05:44:47.076Z,98092.69
2022-07-30T05:47:21.107Z,98092.22
2022-07-30T05:49:55.859Z,98091.00
2022-07-30T05:52:30.328Z,98092.16
2022-07-30T05:55:03.553Z,98087.13
2022-07-30T05:57:37.166Z,98092.50
2022-07-30T06:00:12.538Z,98089.25
2022-07-30T06:02:45.762Z,98094.84
2022-07-30T06:05:19.459Z,98095.88
2022-07-30T06:07:53.894Z,98098.66
2022-07-30T06:10:27.268Z,98093.56
2022-07-30T06:13:00.472Z,98098.03
2022-07-30T06:15:33.758Z,98100.75
2022-07-30T06:18:06.879Z,98102.59
2022-07-30T06:20:39.979Z,98098.28
2022-07-30T06:23:14.394Z,98096.56
2022-07-30T06:25:49.126Z,98096.59
2022-07-30T06:28:39.002Z,98104.47
2022-07-30T06:31:12.654Z,98102.66
2022-07-30T06:33:45.860Z,98102.59
2022-07-30T06:36:18.938Z,98107.75
2022-07-30T06:38:53.344Z,98096.28
2022-07-30T06:41:26.539Z,98113.66
2022-07-30T06:43:59.654Z,98098.69
2022-07-30T06:46:32.759Z,98112.72
2022-07-30T06:49:06.074Z,98109.28
2022-07-30T06:51:39.207Z,98119.56
2022-07-30T06:54:13.904Z,98107.41
2022-07-30T06:56:47.069Z,98116.94
2022-07-30T06:59:20.358Z,98118.38
2022-07-30T07:01:54.332Z,98120.91
2022-07-30T07:04:27.561Z,98115.59
2022-07-30T07:07:01.055Z,98116.63
2022-07-30T07:09:47.182Z,98122.06
2022-07-30T07:12:20.270Z,98120.78
2022-07-30T07:14:53.459Z,98120.66
2022-07-30T07:17:26.570Z,98120.78
2022-07-30T07:20:02.568Z,98128.81
2022-07-30T07:22:36.216Z,98119.97
2022-07-30T07:25:11.273Z,98129.59
2022-07-30T07:27:44.423Z,98126.88
2022-07-30T07:30:37.557Z,98125.34
2022-07-30T07:33:12.124Z,98133.38
2022-07-30T07:35:49.757Z,98129.59
2022-07-30T07:38:24.330Z,98127.78
2022-07-30T07:40:58.738Z,98133.06
2022-07-30T07:43:31.845Z,98136.75
2022-07-30T07:46:05.039Z,98129.41
2022-07-30T07:48:39.334Z,98131.72
2022-07-30T07:51:12.607Z,98127.41
2022-07-30T07:54:00.330Z,98130.97
2022-07-30T07:56:40.140Z,98128.78
2022-07-30T07:59:14.136Z,98132.84
2022-07-30T08:01:50.413Z,98131.81
2022-07-30T08:04:23.502Z,98122.03
2022-07-30T08:06:56.610Z,98129.13
2022-07-30T08:09:42.023Z,98132.34
2022-07-30T08:12:19.261Z,98122.59
2022-07-30T08:14:52.860Z,98128.06
2022-07-30T08:17:26.138Z,98124.03
2022-07-30T08:20:01.194Z,98130.25
2022-07-30T08:22:34.296Z,98130.69
2022-07-30T08:25:08.738Z,98131.78
2022-07-30T08:27:45.211Z,98135.09
2022-07-30T08:30:18.311Z,98128.03
2022-07-30T08:32:51.396Z,98126.28
2022-07-30T08:35:24.605Z,98129.28
2022-07-30T08:37:57.722Z,98115.91
2022-07-30T08:40:34.543Z,98126.09
2022-07-30T08:43:09.516Z,98116.34
2022-07-30T08:45:46.440Z,98123.16
2022-07-30T08:48:23.002Z,98126.28
2022-07-30T08:50:56.437Z,98127.16
2022-07-30T08:53:30.682Z,98130.44
2022-07-30T08:56:05.050Z,98132.66
2022-07-30T08:58:39.762Z,98120.94
2022-07-30T09:01:13.583Z,98125.84
2022-07-30T09:03:46.801Z,98125.44
2022-07-30T09:06:20.328Z,98130.81
2022-07-30T09:08:53.518Z,98133.50
2022-07-30T09:11:26.883Z,98131.34
2022-07-30T09:14:10.705Z,98133.66
2022-07-30T09:16:45.917Z,98125.91
2022-07-30T09:19:21.822Z,98132.94
2022-07-30T09:21:59.195Z,98125.88
2022-07-30T09:24:44.073Z,98127.63
2022-07-30T09:27:17.506Z,98132.69
2022-07-30T09:29:59.929Z,98124.69
2022-07-30T09:32:49.817Z,98114.63
2022-07-30T09:35:24.007Z,98125.78
2022-07-30T09:38:05.975Z,98120.16
2022-07-30T09:40:43.398Z,98122.34
2022-07-30T09:43:18.254Z,98119.63
2022-07-30T09:45:58.275Z,98119.75
2022-07-30T09:48:31.827Z,98119.28
2022-07-30T09:51:05.254Z,98122.38
2022-07-30T09:57:25.457Z,98124.25
2022-07-30T10:00:18.652Z,98127.00
2022-07-30T10:02:54.157Z,98111.09
2022-07-30T10:05:27.841Z,98107.47
2022-07-30T10:08:09.422Z,98113.88
2022-07-30T10:10:50.980Z,98110.34
2022-07-30T10:13:24.422Z,98116.75
2022-07-30T10:16:06.684Z,98113.03
2022-07-30T10:18:44.009Z,98114.63
2022-07-30T10:21:17.691Z,98111.06
2022-07-30T10:23:52.534Z,98105.19
2022-07-30T10:26:26.674Z,98109.47
2022-07-30T10:29:00.311Z,98113.34
2022-07-30T10:31:47.134Z,98115.78
2022-07-30T10:34:27.030Z,98106.31
2022-07-30T10:37:06.668Z,98106.41
2022-07-30T10:39:48.907Z,98108.28
2022-07-30T10:42:40.107Z,98106.75
2022-07-30T10:45:19.511Z,98097.91
2022-07-30T10:47:54.230Z,98109.88
2022-07-30T10:50:29.207Z,98098.50
2022-07-30T10:53:02.924Z,98102.81
2022-07-30T10:55:38.659Z,98099.06
2022-07-30T10:58:15.635Z,98090.16
2022-07-30T11:01:00.248Z,98089.69
2022-07-30T11:03:41.157Z,98097.16
2022-07-30T11:06:29.212Z,98078.47
2022-07-30T11:09:03.478Z,98092.00
2022-07-30T11:12:16.124Z,98096.03
2022-07-30T11:15:07.375Z,98099.84
2022-07-30T11:18:13.157Z,98109.50
2022-07-30T11:21:21.528Z,98109.69
2022-07-30T11:23:57.094Z,98098.44
2022-07-30T11:26:52.881Z,98098.44
2022-07-30T11:29:50.470Z,98100.44
2022-07-30T11:32:32.031Z,98100.28
2022-07-30T11:35:18.654Z,98090.44
2022-07-30T11:38:05.078Z,98085.72
2022-07-30T11:41:10.883Z,98079.28
2022-07-30T11:43:43.954Z,98088.94
2022-07-30T11:46:28.991Z,98084.25
2022-07-30T11:49:08.629Z,98087.47
2022-07-30T11:51:43.244Z,98075.78
2022-07-30T11:54:16.987Z,98086.59
2022-07-30T11:56:54.111Z,98090.97
2022-07-30T11:59:27.937Z,98079.69
2022-07-30T12:02:02.162Z,98078.03
2022-07-30T12:04:44.649Z,98083.19
2022-07-30T12:07:23.893Z,98072.72
2022-07-30T12:10:14.586Z,98069.00
2022-07-30T12:12:50.789Z,98075.78
2022-07-30T12:15:32.734Z,98067.88
2022-07-30T12:18:25.417Z,98070.56
2022-07-30T12:21:01.254Z,98077.75
2022-07-30T12:23:34.313Z,98070.81
2022-07-30T12:26:07.463Z,98062.69
2022-07-30T12:28:42.438Z,98068.91
2022-07-30T12:31:17.636Z,98066.28
2022-07-30T12:33:50.926Z,98064.59
2022-07-30T12:36:30.779Z,98050.97
2022-07-30T12:39:06.763Z,98071.19
2022-07-30T12:41:45.638Z,98066.97
2022-07-30T12:44:40.776Z,98065.53
2022-07-30T12:47:23.851Z,98059.75
2022-07-30T12:50:00.649Z,98059.94
2022-07-30T12:52:37.695Z,98066.16
2022-07-30T12:55:13.616Z,98055.59
2022-07-30T12:58:02.987Z,98046.72
2022-07-30T13:00:52.709Z,98055.50
2022-07-30T13:03:28.348Z,98049.63
2022-07-30T13:06:02.202Z,98045.38
2022-07-30T13:08:52.485Z,98041.66
2022-07-30T13:11:27.319Z,98033.41
2022-07-30T13:14:01.708Z,98036.63
2022-07-30T13:16:37.676Z,98035.69
2022-07-30T13:19:12.963Z,98021.84
2022-07-30T13:21:49.670Z,98031.00
2022-07-30T13:24:23.505Z,98031.88
2022-07-30T13:26:57.471Z,98036.34
2022-07-30T13:29:30.985Z,98027.78
2022-07-30T13:32:06.070Z,98035.72
2022-07-30T13:34:39.990Z,98028.84
2022-07-30T13:37:13.122Z,98020.09
2022-07-30T13:39:46.195Z,98022.88
2022-07-30T13:42:19.296Z,98012.19
2022-07-30T13:44:54.707Z,98019.09
2022-07-30T13:47:29.591Z,98020.66
2022-07-30T13:50:02.786Z,98009.22
2022-07-30T13:56:52.667Z,97998.00
2022-07-30T13:59:51.256Z,98015.50
2022-07-30T14:02:26.446Z,98003.25
2022-07-30T14:05:34.374Z,97997.84
2022-07-30T14:08:23.048Z,97989.72
2022-07-30T14:11:31.962Z,97988.75
2022-07-30T14:14:42.842Z,97989.00
2022-07-30T14:17:56.601Z,97988.03
2022-07-30T14:20:49.705Z,97985.50
2022-07-30T14:24:28.462Z,97983.56
2022-07-30T14:30:32.749Z,97982.00
2022-07-30T14:33:41.082Z,97979.25
2022-07-30T14:36:39.811Z,97982.50
2022-07-30T14:39:45.778Z,97979.91
2022-07-30T14:42:21.268Z,97984.81
2022-07-30T14:44:57.073Z,97979.81
2022-07-30T14:47:30.533Z,97975.47
2022-07-30T14:50:04.865Z,97967.63
2022-07-30T14:52:40.147Z,97970.25
2022-07-30T14:55:13.322Z,97970.25
2022-07-30T14:57:46.674Z,97967.75
2022-07-30T15:00:21.314Z,97977.25
2022-07-30T15:02:57.696Z,97971.13
2022-07-30T15:05:31.073Z,97975.56
2022-07-30T15:08:06.377Z,97978.00
2022-07-30T15:10:41.287Z,97975.38
2022-07-30T15:13:17.078Z,97971.00
2022-07-30T15:15:51.924Z,97980.53
2022-07-30T15:18:25.335Z,97981.31
2022-07-30T15:20:58.552Z,97974.34
2022-07-30T15:23:33.369Z,97971.50
2022-07-30T15:26:06.716Z,97972.44
2022-07-30T15:28:40.099Z,97983.09
2022-07-30T15:31:13.363Z,97967.25
2022-07-30T15:33:47.174Z,97969.22
2022-07-30T15:36:20.270Z,97970.16
2022-07-30T15:38:55.109Z,97972.69
2022-07-30T15:41:28.243Z,97969.34
2022-07-30T15:44:01.383Z,97964.00
2022-07-30T15:46:34.786Z,97963.22
2022-07-30T15:49:08.249Z,97957.19
2022-07-30T15:51:47.452Z,97957.28
2022-07-30T15:54:23.865Z,97957.25
2022-07-30T15:57:01.152Z,97957.25
2022-07-30T15:59:34.793Z,97960.00
2022-07-30T16:02:07.937Z,97957.28
2022-07-30T16:04:41.110Z,97956.22
2022-07-30T16:07:14.491Z,97951.81
2022-07-30T16:09:48.932Z,97954.41
2022-07-30T16:12:22.047Z,97951.78
2022-07-30T16:14:55.231Z,97948.13
2022-07-30T16:17:28.527Z,97951.78
2022-07-30T16:20:01.779Z,97944.81
2022-07-30T16:22:34.871Z,97957.84
2022-07-30T16:25:10.258Z,97961.22
2022-07-30T16:27:43.409Z,97966.50
2022-07-30T16:30:16.575Z,97963.13
2022-07-30T16:32:50.518Z,97960.53
2022-07-30T16:35:24.539Z,97950.25
2022-07-30T16:38:02.710Z,97952.13
2022-07-30T16:40:37.222Z,97955.78
2022-07-30T16:43:10.360Z,97947.13
2022-07-30T16:45:43.896Z,97952.53
2022-07-30T16:48:17.100Z,97956.09
2022-07-30T16:50:50.243Z,97959.53
2022-07-30T16:53:23.366Z,97963.94
2022-07-30T16:55:58.495Z,97957.00
2022-07-30T16:58:31.779Z,97957.88
2022-07-30T17:01:05.008Z,97951.75
2022-07-30T17:03:38.138Z,97956.00
2022-07-30T17:06:11.220Z,97954.28
2022-07-30T17:08:44.812Z,97957.88
2022-07-30T17:11:46.324Z,97952.59
2022-07-30T17:14:13.698Z,97950.88
2022-07-30T17:16:46.839Z,97961.41
2022-07-30T17:19:19.962Z,97958.06
2022-07-30T17:21:53.554Z,97958.03
2022-07-30T17:24:26.698Z,97965.16
2022-07-30T17:27:01.198Z,97969.66
2022-07-30T17:29:34.349Z,97975.91
2022-07-30T17:32:23.340Z,97979.50
2022-07-30T17:34:56.463Z,97972.53
2022-07-30T17:37:29.573Z,97972.63
2022-07-30T17:40:27.478Z,97976.19
2022-07-30T17:43:03.098Z,97978.03
2022-07-30T17:45:37.673Z,97971.94
2022-07-30T17:48:10.970Z,97981.56
2022-07-30T17:50:44.076Z,97985.16
2022-07-30T17:53:19.291Z,97981.69
2022-07-30T17:55:57.439Z,97984.38
2022-07-30T17:58:32.659Z,97987.91
2022-07-30T18:01:06.094Z,97990.59
2022-07-30T18:03:39.615Z,97988.88
2022-07-30T18:06:18.319Z,97985.41
2022-07-30T18:08:51.640Z,97989.81
2022-07-30T18:11:25.193Z,98005.59
2022-07-30T18:14:00.190Z,97995.16
2022-07-30T18:16:33.317Z,98004.78
2022-07-30T18:19:06.479Z,98005.69
2022-07-30T18:21:39.606Z,98003.13
2022-07-30T18:24:13.328Z,98006.66
2022-07-30T18:26:46.895Z,98006.69
2022-07-30T18:29:21.414Z,98008.41
2022-07-30T18:31:54.507Z,98008.41
2022-07-30T18:34:27.667Z,98007.53
2022-07-30T18:37:00.745Z,98009.28
2022-07-30T18:39:33.869Z,98004.91
2022-07-30T18:42:07.812Z,98017.97
2022-07-30T18:44:42.503Z,98015.34
2022-07-30T18:47:15.731Z,98020.53
2022-07-30T18:49:50.173Z,98025.75
2022-07-30T18:52:23.530Z,98026.63
2022-07-30T18:54:56.615Z,98029.19
2022-07-30T18:57:29.741Z,98036.16
2022-07-30T19:00:05.754Z,98031.75
2022-07-30T19:02:39.781Z,98043.00
2022-07-30T19:05:13.090Z,98043.00
2022-07-30T19:07:55.359Z,98051.66
2022-07-30T19:10:31.405Z,98046.41
2022-07-30T19:13:05.154Z,98050.66
2022-07-30T19:15:40.207Z,98052.31
2022-07-30T19:18:13.261Z,98058.31
2022-07-30T19:20:46.595Z,98058.25
2022-07-30T19:23:19.736Z,98066.81
2022-07-30T19:25:52.862Z,98073.72
2022-07-30T19:28:26.777Z,98077.16
2022-07-30T19:31:01.279Z,98080.50
2022-07-30T19:33:34.366Z,98094.31
2022-07-30T19:36:07.787Z,98096.00
2022-07-30T19:38:44.147Z,98086.38
2022-07-30T19:41:18.508Z,98094.13
2022-07-30T19:43:57.917Z,98101.03
2022-07-30T19:46:32.787Z,98097.50
2022-07-30T19:49:07.051Z,98099.19
2022-07-30T19:52:11.217Z,98106.00
2022-07-30T19:54:33.639Z,98109.44
2022-07-30T19:57:09.829Z,98112.75
2022-07-30T19:59:46.545Z,98110.78
2022-07-30T20:02:35.670Z,98102.94
2022-07-30T20:05:11.788Z,98120.22
2022-07-30T20:07:48.971Z,98115.63
2022-07-30T20:10:22.617Z,98124.28
2022-07-30T20:12:55.724Z,98124.16
2022-07-30T20:15:30.314Z,98119.66
2022-07-30T20:18:05.259Z,98123.72
2022-07-30T20:20:41.329Z,98128.84
2022-07-30T20:23:14.664Z,98125.34
2022-07-30T20:25:48.098Z,98121.84
2022-07-30T20:28:21.709Z,98118.13
2022-07-30T20:31:00.424Z,98122.41
2022-07-30T20:33:36.028Z,98125.59
2022-07-30T20:36:11.594Z,98131.56
2022-07-30T20:38:47.103Z,98133.28
2022-07-30T20:41:27.104Z,98138.50
2022-07-30T20:44:25.252Z,98140.00
2022-07-30T20:47:28.261Z,98139.84
2022-07-30T20:50:30.617Z,98140.50
2022-07-30T20:53:14.442Z,98146.47
2022-07-30T20:55:56.348Z,98137.69
2022-07-30T20:58:53.519Z,98142.75
2022-07-30T21:02:00.516Z,98144.09
2022-07-30T21:04:46.509Z,98140.50
2022-07-30T21:07:59.809Z,98136.69
2022-07-30T21:10:50.102Z,98144.44
2022-07-30T21:13:35.405Z,98140.19
2022-07-30T21:16:32.498Z,98146.31
2022-07-30T21:19:33.362Z,98146.25
2022-07-30T21:22:35.969Z,98143.72
2022-07-30T21:25:33.482Z,98138.50
2022-07-30T21:28:27.681Z,98145.59
2022-07-30T21:38:04.494Z,98151.25
2022-07-30T21:41:15.472Z,98157.97
2022-07-30T21:44:00.587Z,98156.94
2022-07-30T21:47:11.643Z,98164.53
2022-07-30T21:49:55.913Z,98167.03
2022-07-30T21:53:04.427Z,98164.94
2022-07-30T21:58:45.728Z,98162.88
2022-07-30T22:01:39.509Z,98165.28
2022-07-30T22:04:39.594Z,98175.47
2022-07-30T22:07:13.206Z,98178.47
2022-07-30T22:09:47.672Z,98194.38
2022-07-30T22:12:20.781Z,98191.50
2022-07-30T22:14:53.850Z,98185.34
2022-07-30T22:17:36.596Z,98187.94
2022-07-30T22:20:12.539Z,98181.75
2022-07-30T22:22:45.628Z,98178.34
2022-07-30T22:25:21.607Z,98188.63
2022-07-30T22:27:57.195Z,98186.13
2022-07-30T22:30:31.120Z,98188.31
2022-07-30T22:33:13.071Z,98200.31
2022-07-30T22:35:49.691Z,98188.91
2022-07-30T22:38:23.239Z,98193.25
2022-07-30T22:40:57.692Z,98194.09
2022-07-30T22:43:35.512Z,98191.59
2022-07-30T22:46:14.922Z,98190.53
2022-07-30T22:49:03.822Z,98193.13
2022-07-30T22:52:02.851Z,98191.28
2022-07-30T22:54:30.477Z,98191.81
2022-07-30T22:57:05.103Z,98181.34
2022-07-30T22:59:58.448Z,98184.81
2022-07-30T23:02:31.269Z,98186.53
2022-07-30T23:05:04.924Z,98183.94
2022-07-30T23:07:39.794Z,98184.72
2022-07-30T23:10:18.054Z,98189.97
2022-07-30T23:12:53.597Z,98177.66
2022-07-30T23:15:26.974Z,98183.63
2022-07-30T23:18:00.278Z,98179.31
2022-07-30T23:20:33.688Z,98179.22
2022-07-30T23:23:06.755Z,98174.50
2022-07-30T23:25:40.615Z,98181.16
2022-07-30T23:28:15.088Z,98171.56
2022-07-30T23:30:49.041Z,98172.53
2022-07-30T23:33:22.170Z,98175.63
2022-07-30T23:35:55.261Z,98170.63
2022-07-30T23:38:28.801Z,98172.91
2022-07-30T23:41:04.027Z,98163.94
2022-07-30T23:43:39.753Z,98173.56
2022-07-30T23:46:13.914Z,98174.34
2022-07-30T23:48:47.378Z,98180.34
2022-07-30T23:51:20.619Z,98168.97
2022-07-30T23:53:53.698Z,98167.97
2022-07-30T23:56:27.232Z,98176.50
2022-07-30T23:59:01.710Z,98179.09
